createdAt,value
2017-03-01T00:00:11.654Z,922.41
2017-03-01T00:00:26.282Z,922.4
2017-03-01T00:00:40.949Z,922.42
2017-03-01T00:00:55.579Z,922.41
2017-03-01T00:01:10.184Z,922.4
2017-03-01T00:01:24.849Z,922.4
2017-03-01T00:01:40.011Z,922.44
2017-03-01T00:01:54.626Z,922.42
2017-03-01T00:02:09.259Z,922.46
2017-03-01T00:02:23.913Z,922.44
2017-03-01T00:02:38.578Z,922.45
2017-03-01T00:02:53.141Z,922.45
2017-03-01T00:03:07.791Z,922.45
2017-03-01T00:03:22.397Z,922.45
2017-03-01T00:03:37.006Z,922.42
2017-03-01T00:03:51.622Z,922.42
2017-03-01T00:04:06.236Z,922.44
2017-03-01T00:04:20.872Z,922.45
2017-03-01T00:04:35.526Z,922.48
2017-03-01T00:04:50.156Z,922.47
2017-03-01T00:05:04.736Z,922.46
2017-03-01T00:05:19.387Z,922.46
2017-03-01T00:05:34.064Z,922.45
2017-03-01T00:05:48.685Z,922.45
2017-03-01T00:06:03.265Z,922.47
2017-03-01T00:06:17.909Z,922.45
2017-03-01T00:06:32.491Z,922.43
2017-03-01T00:06:47.123Z,922.49
2017-03-01T00:07:01.714Z,922.45
2017-03-01T00:07:16.336Z,922.45
2017-03-01T00:07:30.967Z,922.44
2017-03-01T00:07:45.550Z,922.47
2017-03-01T00:08:00.183Z,922.49
2017-03-01T00:08:14.885Z,922.46
2017-03-01T00:08:29.545Z,922.44
2017-03-01T00:08:44.253Z,922.45
2017-03-01T00:08:58.897Z,922.48
2017-03-01T00:09:13.500Z,922.48
2017-03-01T00:09:28.170Z,922.46
2017-03-01T00:09:42.790Z,922.48
2017-03-01T00:09:57.427Z,922.45
2017-03-01T00:10:12.096Z,922.42
2017-03-01T00:10:26.730Z,922.49
2017-03-01T00:10:41.317Z,922.45
2017-03-01T00:10:55.949Z,922.48
2017-03-01T00:11:10.547Z,922.46
2017-03-01T00:11:25.156Z,922.47
2017-03-01T00:11:39.787Z,922.47
2017-03-01T00:11:54.451Z,922.48
2017-03-01T00:12:09.072Z,922.5
2017-03-01T00:12:23.687Z,922.5
2017-03-01T00:12:38.330Z,922.51
2017-03-01T00:12:52.962Z,922.53
2017-03-01T00:13:07.559Z,922.53
2017-03-01T00:13:22.185Z,922.5
2017-03-01T00:13:36.788Z,922.54
2017-03-01T00:13:51.440Z,922.53
2017-03-01T00:14:06.014Z,922.53
2017-03-01T00:14:20.643Z,922.51
2017-03-01T00:14:35.261Z,922.53
2017-03-01T00:14:49.877Z,922.54
2017-03-01T00:15:04.513Z,922.53
2017-03-01T00:15:19.140Z,922.54
2017-03-01T00:15:33.781Z,922.55
2017-03-01T00:15:48.436Z,922.55
2017-03-01T00:16:03.099Z,922.55
2017-03-01T00:16:17.717Z,922.59
2017-03-01T00:16:32.378Z,922.59
2017-03-01T00:16:47.367Z,922.6
2017-03-01T00:17:02.004Z,922.6
2017-03-01T00:17:16.665Z,922.61
2017-03-01T00:17:31.241Z,922.61
2017-03-01T00:17:45.871Z,922.63
2017-03-01T00:18:00.462Z,922.65
2017-03-01T00:18:15.094Z,922.64
2017-03-01T00:18:29.736Z,922.64
2017-03-01T00:18:44.337Z,922.67
2017-03-01T00:18:58.913Z,922.67
2017-03-01T00:19:13.489Z,922.67
2017-03-01T00:19:28.137Z,922.69
2017-03-01T00:19:42.787Z,922.7
2017-03-01T00:19:57.493Z,922.7
2017-03-01T00:20:12.154Z,922.71
2017-03-01T00:20:26.834Z,922.73
2017-03-01T00:20:41.519Z,922.73
2017-03-01T00:20:56.153Z,922.75
2017-03-01T00:21:10.775Z,922.74
2017-03-01T00:21:25.445Z,922.75
2017-03-01T00:21:40.132Z,922.74
2017-03-01T00:21:54.823Z,922.75
2017-03-01T00:22:09.684Z,922.76
2017-03-01T00:22:24.345Z,922.76
2017-03-01T00:22:39.012Z,922.78
2017-03-01T00:22:53.704Z,922.75
2017-03-01T00:23:08.383Z,922.78
2017-03-01T00:23:23.078Z,922.77
2017-03-01T00:23:37.732Z,922.77
2017-03-01T00:23:52.365Z,922.75
2017-03-01T00:24:06.985Z,922.75
2017-03-01T00:24:21.589Z,922.75
2017-03-01T00:24:36.191Z,922.79
2017-03-01T00:24:50.815Z,922.82
2017-03-01T00:25:05.431Z,922.77
2017-03-01T00:25:23.754Z,922.76
2017-03-01T00:25:39.306Z,922.77
2017-03-01T00:25:56.243Z,922.79
2017-03-01T00:26:37.956Z,922.8
2017-03-01T00:26:52.603Z,922.78
2017-03-01T00:27:07.290Z,922.81
2017-03-01T00:27:21.909Z,922.77
2017-03-01T00:27:36.568Z,922.79
2017-03-01T00:27:51.219Z,922.79
2017-03-01T00:28:05.857Z,922.79
2017-03-01T00:28:20.430Z,922.79
2017-03-01T00:28:35.030Z,922.78
2017-03-01T00:28:49.650Z,922.79
2017-03-01T00:29:35.196Z,922.79
2017-03-01T00:29:49.805Z,922.79
2017-03-01T00:30:04.473Z,922.81
2017-03-01T00:30:19.304Z,922.82
2017-03-01T00:30:33.952Z,922.82
2017-03-01T00:30:48.595Z,922.82
2017-03-01T00:31:03.231Z,922.81
2017-03-01T00:31:17.906Z,922.83
2017-03-01T00:31:32.523Z,922.78
2017-03-01T00:31:47.120Z,922.82
2017-03-01T00:32:01.932Z,922.84
2017-03-01T00:32:16.580Z,922.8
2017-03-01T00:32:32.027Z,922.83
2017-03-01T00:32:46.625Z,922.83
2017-03-01T00:33:01.285Z,922.83
2017-03-01T00:33:15.873Z,922.83
2017-03-01T00:33:30.546Z,922.81
2017-03-01T00:33:45.222Z,922.81
2017-03-01T00:34:02.928Z,922.83
2017-03-01T00:34:17.812Z,922.82
2017-03-01T00:34:32.462Z,922.81
2017-03-01T00:34:47.138Z,922.81
2017-03-01T00:35:01.809Z,922.81
2017-03-01T00:35:21.561Z,922.81
2017-03-01T00:35:36.176Z,922.81
2017-03-01T00:35:50.808Z,922.82
2017-03-01T00:36:10.981Z,922.82
2017-03-01T00:36:30.187Z,922.77
2017-03-01T00:36:44.901Z,922.81
2017-03-01T00:36:59.607Z,922.83
2017-03-01T00:37:14.269Z,922.82
2017-03-01T00:37:28.964Z,922.83
2017-03-01T00:37:43.645Z,922.83
2017-03-01T00:37:58.430Z,922.82
2017-03-01T00:38:13.083Z,922.84
2017-03-01T00:38:27.753Z,922.89
2017-03-01T00:38:42.410Z,922.83
2017-03-01T00:38:57.036Z,922.84
2017-03-01T00:39:11.661Z,922.84
2017-03-01T00:39:26.289Z,922.89
2017-03-01T00:39:40.829Z,922.88
2017-03-01T00:39:55.427Z,922.89
2017-03-01T00:40:10.299Z,922.87
2017-03-01T00:40:24.849Z,922.88
2017-03-01T00:40:39.480Z,922.91
2017-03-01T00:40:54.127Z,922.9
2017-03-01T00:41:08.737Z,922.93
2017-03-01T00:41:24.577Z,922.9
2017-03-01T00:41:39.258Z,922.9
2017-03-01T00:41:53.879Z,922.93
2017-03-01T00:42:08.602Z,922.9
2017-03-01T00:42:23.978Z,922.91
2017-03-01T00:42:38.620Z,922.92
2017-03-01T00:42:53.222Z,922.91
2017-03-01T00:43:07.829Z,922.92
2017-03-01T00:43:22.406Z,922.94
2017-03-01T00:43:37.036Z,922.92
2017-03-01T00:43:51.637Z,922.93
2017-03-01T00:44:06.305Z,922.93
2017-03-01T00:44:20.957Z,922.92
2017-03-01T00:44:35.629Z,922.97
2017-03-01T00:44:50.174Z,922.93
2017-03-01T00:45:04.767Z,922.93
2017-03-01T00:45:19.429Z,922.96
2017-03-01T00:45:34.029Z,922.93
2017-03-01T00:45:48.635Z,922.92
2017-03-01T00:46:03.910Z,922.92
2017-03-01T00:46:18.498Z,922.93
2017-03-01T00:46:33.151Z,922.94
2017-03-01T00:46:47.774Z,922.92
2017-03-01T00:47:04.056Z,922.92
2017-03-01T00:47:18.661Z,922.97
2017-03-01T00:47:33.280Z,922.92
2017-03-01T00:47:47.924Z,922.94
2017-03-01T00:48:02.515Z,922.9
2017-03-01T00:48:17.096Z,922.94
2017-03-01T00:48:31.705Z,922.92
2017-03-01T00:48:46.336Z,922.91
2017-03-01T00:49:01.002Z,922.9
2017-03-01T00:49:15.683Z,922.93
2017-03-01T00:49:30.287Z,922.89
2017-03-01T00:49:44.889Z,922.92
2017-03-01T00:49:59.514Z,922.89
2017-03-01T00:50:14.065Z,922.91
2017-03-01T00:50:28.694Z,922.9
2017-03-01T00:50:43.282Z,922.92
2017-03-01T00:50:57.872Z,922.91
2017-03-01T00:51:12.454Z,922.93
2017-03-01T00:51:27.087Z,922.91
2017-03-01T00:51:41.713Z,922.9
2017-03-01T00:51:56.231Z,922.92
2017-03-01T00:52:10.776Z,922.92
2017-03-01T00:52:25.376Z,922.95
2017-03-01T00:52:40.013Z,922.96
2017-03-01T00:52:54.787Z,922.92
2017-03-01T00:53:09.471Z,922.92
2017-03-01T00:53:24.059Z,922.91
2017-03-01T00:53:43.653Z,922.94
2017-03-01T00:54:10.065Z,922.91
2017-03-01T00:54:24.654Z,922.97
2017-03-01T00:54:39.257Z,922.95
2017-03-01T00:55:04.251Z,922.94
2017-03-01T00:55:19.695Z,922.97
2017-03-01T00:55:34.327Z,922.95
2017-03-01T00:55:52.094Z,922.93
2017-03-01T00:56:06.707Z,922.94
2017-03-01T00:56:21.404Z,922.92
2017-03-01T00:56:36.245Z,922.94
2017-03-01T00:56:50.840Z,922.94
2017-03-01T00:57:05.478Z,922.96
2017-03-01T00:57:20.141Z,922.95
2017-03-01T00:57:34.777Z,922.96
2017-03-01T00:57:51.391Z,922.95
2017-03-01T00:58:06.049Z,922.97
2017-03-01T00:58:20.660Z,922.95
2017-03-01T00:58:35.258Z,922.97
2017-03-01T00:58:49.900Z,922.96
2017-03-01T00:59:04.489Z,922.95
2017-03-01T00:59:19.152Z,922.93
2017-03-01T00:59:33.706Z,922.95
2017-03-01T00:59:48.364Z,922.98
2017-03-01T01:00:02.938Z,922.96
2017-03-01T01:00:17.469Z,922.94
2017-03-01T01:00:32.027Z,922.94
2017-03-01T01:00:46.627Z,922.97
2017-03-01T01:01:02.417Z,922.93
2017-03-01T01:01:19.861Z,922.95
2017-03-01T01:01:34.469Z,922.95
2017-03-01T01:01:49.132Z,922.93
2017-03-01T01:02:04.029Z,922.92
2017-03-01T01:02:18.608Z,922.95
2017-03-01T01:02:33.905Z,922.96
2017-03-01T01:02:48.506Z,922.95
2017-03-01T01:03:03.108Z,922.94
2017-03-01T01:03:17.693Z,922.96
2017-03-01T01:03:32.310Z,922.95
2017-03-01T01:03:46.956Z,922.97
2017-03-01T01:04:02.492Z,922.95
2017-03-01T01:04:21.736Z,922.96
2017-03-01T01:04:36.349Z,922.95
2017-03-01T01:04:50.873Z,922.95
2017-03-01T01:05:05.508Z,922.93
2017-03-01T01:05:20.121Z,922.96
2017-03-01T01:05:39.810Z,922.95
2017-03-01T01:05:54.402Z,922.95
2017-03-01T01:06:09.018Z,922.92
2017-03-01T01:06:23.692Z,922.93
2017-03-01T01:06:38.277Z,922.9
2017-03-01T01:06:52.881Z,922.94
2017-03-01T01:07:07.517Z,922.92
2017-03-01T01:07:22.256Z,922.92
2017-03-01T01:07:36.851Z,922.93
2017-03-01T01:07:51.479Z,922.91
2017-03-01T01:08:07.315Z,922.92
2017-03-01T01:08:21.914Z,922.93
2017-03-01T01:08:36.585Z,922.91
2017-03-01T01:08:51.412Z,922.9
2017-03-01T01:09:06.008Z,922.89
2017-03-01T01:09:20.631Z,922.89
2017-03-01T01:09:35.235Z,922.91
2017-03-01T01:09:49.913Z,922.9
2017-03-01T01:10:04.789Z,922.88
2017-03-01T01:10:19.439Z,922.88
2017-03-01T01:10:41.730Z,922.87
2017-03-01T01:10:57.266Z,922.87
2017-03-01T01:11:11.872Z,922.87
2017-03-01T01:11:26.473Z,922.86
2017-03-01T01:11:41.029Z,922.84
2017-03-01T01:11:55.854Z,922.86
2017-03-01T01:12:10.567Z,922.84
2017-03-01T01:12:25.145Z,922.86
2017-03-01T01:12:39.712Z,922.88
2017-03-01T01:12:54.340Z,922.82
2017-03-01T01:13:08.939Z,922.86
2017-03-01T01:13:23.497Z,922.86
2017-03-01T01:13:38.099Z,922.85
2017-03-01T01:13:52.663Z,922.85
2017-03-01T01:14:07.293Z,922.85
2017-03-01T01:14:22.192Z,922.84
2017-03-01T01:14:36.786Z,922.86
2017-03-01T01:14:51.368Z,922.86
2017-03-01T01:15:05.992Z,922.84
2017-03-01T01:15:20.866Z,922.83
2017-03-01T01:15:39.156Z,922.84
2017-03-01T01:15:53.787Z,922.86
2017-03-01T01:16:08.413Z,922.88
2017-03-01T01:16:23.095Z,922.88
2017-03-01T01:16:37.635Z,922.9
2017-03-01T01:16:52.296Z,922.9
2017-03-01T01:17:06.993Z,922.9
2017-03-01T01:17:21.817Z,922.88
2017-03-01T01:17:36.436Z,922.9
2017-03-01T01:17:51.043Z,922.9
2017-03-01T01:18:05.621Z,922.9
2017-03-01T01:18:20.155Z,922.93
2017-03-01T01:18:34.763Z,922.89
2017-03-01T01:18:49.391Z,922.93
2017-03-01T01:19:03.994Z,922.9
2017-03-01T01:19:18.599Z,922.89
2017-03-01T01:19:33.219Z,922.91
2017-03-01T01:19:47.861Z,922.91
2017-03-01T01:20:02.466Z,922.94
2017-03-01T01:20:22.140Z,922.93
2017-03-01T01:20:36.758Z,922.95
2017-03-01T01:20:51.383Z,922.98
2017-03-01T01:21:06.008Z,922.97
2017-03-01T01:21:20.599Z,922.93
2017-03-01T01:21:35.275Z,922.96
2017-03-01T01:21:51.117Z,922.93
2017-03-01T01:22:05.759Z,922.96
2017-03-01T01:22:20.558Z,922.93
2017-03-01T01:22:36.611Z,923.01
2017-03-01T01:22:51.258Z,923.02
2017-03-01T01:23:05.829Z,923.01
2017-03-01T01:23:20.389Z,923.01
2017-03-01T01:23:34.990Z,922.99
2017-03-01T01:23:49.882Z,923
2017-03-01T01:24:14.658Z,923.01
2017-03-01T01:24:29.267Z,923.04
2017-03-01T01:24:43.925Z,923.03
2017-03-01T01:24:58.503Z,923.05
2017-03-01T01:25:13.095Z,923.04
2017-03-01T01:25:27.690Z,923.07
2017-03-01T01:25:42.278Z,923.09
2017-03-01T01:25:56.907Z,923.07
2017-03-01T01:26:11.558Z,923.07
2017-03-01T01:26:26.120Z,923.1
2017-03-01T01:27:07.847Z,923.1
2017-03-01T01:27:23.132Z,923.11
2017-03-01T01:27:37.793Z,923.09
2017-03-01T01:27:52.392Z,923.13
2017-03-01T01:28:09.516Z,923.15
2017-03-01T01:28:28.799Z,923.13
2017-03-01T01:28:48.439Z,923.14
2017-03-01T01:29:03.083Z,923.18
2017-03-01T01:29:17.732Z,923.17
2017-03-01T01:29:33.099Z,923.17
2017-03-01T01:29:47.933Z,923.18
2017-03-01T01:30:02.576Z,923.2
2017-03-01T01:30:17.210Z,923.18
2017-03-01T01:30:31.815Z,923.2
2017-03-01T01:30:46.515Z,923.2
2017-03-01T01:31:01.081Z,923.17
2017-03-01T01:31:15.695Z,923.17
2017-03-01T01:31:30.260Z,923.19
2017-03-01T01:31:44.843Z,923.22
2017-03-01T01:31:59.440Z,923.2
2017-03-01T01:32:14.065Z,923.23
2017-03-01T01:32:28.887Z,923.2
2017-03-01T01:32:43.570Z,923.21
2017-03-01T01:32:58.185Z,923.21
2017-03-01T01:33:12.847Z,923.22
2017-03-01T01:33:27.440Z,923.26
2017-03-01T01:33:42.031Z,923.24
2017-03-01T01:33:56.692Z,923.26
2017-03-01T01:34:11.339Z,923.28
2017-03-01T01:34:27.174Z,923.28
2017-03-01T01:34:41.725Z,923.23
2017-03-01T01:34:57.620Z,923.3
2017-03-01T01:35:13.418Z,923.29
2017-03-01T01:35:29.219Z,923.28
2017-03-01T01:35:43.829Z,923.29
2017-03-01T01:35:58.477Z,923.3
2017-03-01T01:36:13.291Z,923.31
2017-03-01T01:36:27.896Z,923.3
2017-03-01T01:36:42.554Z,923.33
2017-03-01T01:36:57.106Z,923.34
2017-03-01T01:37:11.718Z,923.32
2017-03-01T01:37:26.301Z,923.34
2017-03-01T01:37:40.928Z,923.33
2017-03-01T01:37:55.548Z,923.32
2017-03-01T01:38:10.114Z,923.37
2017-03-01T01:38:24.730Z,923.36
2017-03-01T01:38:39.313Z,923.33
2017-03-01T01:38:53.934Z,923.4
2017-03-01T01:39:10.558Z,923.37
2017-03-01T01:39:25.193Z,923.37
2017-03-01T01:39:39.887Z,923.34
2017-03-01T01:39:54.574Z,923.34
2017-03-01T01:40:09.145Z,923.34
2017-03-01T01:40:23.711Z,923.35
2017-03-01T01:40:38.361Z,923.34
2017-03-01T01:40:52.976Z,923.35
2017-03-01T01:41:07.571Z,923.37
2017-03-01T01:41:22.159Z,923.35
2017-03-01T01:41:36.775Z,923.35
2017-03-01T01:41:51.405Z,923.33
2017-03-01T01:42:05.986Z,923.36
2017-03-01T01:42:20.645Z,923.38
2017-03-01T01:42:35.276Z,923.35
2017-03-01T01:42:49.834Z,923.39
2017-03-01T01:43:04.448Z,923.38
2017-03-01T01:43:19.087Z,923.37
2017-03-01T01:43:33.705Z,923.39
2017-03-01T01:43:48.277Z,923.41
2017-03-01T01:44:02.871Z,923.42
2017-03-01T01:44:17.508Z,923.44
2017-03-01T01:44:32.120Z,923.44
2017-03-01T01:44:46.767Z,923.46
2017-03-01T01:45:01.314Z,923.47
2017-03-01T01:45:15.892Z,923.44
2017-03-01T01:45:30.485Z,923.47
2017-03-01T01:45:45.083Z,923.44
2017-03-01T01:45:59.688Z,923.45
2017-03-01T01:46:14.297Z,923.45
2017-03-01T01:46:28.903Z,923.48
2017-03-01T01:46:43.568Z,923.48
2017-03-01T01:46:58.219Z,923.49
2017-03-01T01:47:12.794Z,923.5
2017-03-01T01:47:27.603Z,923.51
2017-03-01T01:47:42.212Z,923.52
2017-03-01T01:47:56.756Z,923.5
2017-03-01T01:48:11.330Z,923.52
2017-03-01T01:48:26.791Z,923.53
2017-03-01T01:48:41.391Z,923.52
2017-03-01T01:48:55.980Z,923.57
2017-03-01T01:49:10.588Z,923.55
2017-03-01T01:49:25.196Z,923.58
2017-03-01T01:49:39.805Z,923.55
2017-03-01T01:49:54.428Z,923.57
2017-03-01T01:50:09.038Z,923.55
2017-03-01T01:50:23.644Z,923.58
2017-03-01T01:50:38.277Z,923.56
2017-03-01T01:50:52.920Z,923.6
2017-03-01T01:51:07.528Z,923.57
2017-03-01T01:51:22.117Z,923.6
2017-03-01T01:51:36.766Z,923.59
2017-03-01T01:51:51.342Z,923.59
2017-03-01T01:52:06.001Z,923.61
2017-03-01T01:52:20.571Z,923.56
2017-03-01T01:52:35.155Z,923.57
2017-03-01T01:52:49.772Z,923.58
2017-03-01T01:53:04.310Z,923.6
2017-03-01T01:53:18.960Z,923.59
2017-03-01T01:53:33.582Z,923.55
2017-03-01T01:53:48.172Z,923.55
2017-03-01T01:54:02.749Z,923.57
2017-03-01T01:54:17.339Z,923.55
2017-03-01T01:54:31.963Z,923.52
2017-03-01T01:54:46.556Z,923.59
2017-03-01T01:55:01.208Z,923.54
2017-03-01T01:55:15.812Z,923.55
2017-03-01T01:55:30.435Z,923.56
2017-03-01T01:55:45.103Z,923.54
2017-03-01T01:55:59.948Z,923.57
2017-03-01T01:56:14.456Z,923.56
2017-03-01T01:56:29.047Z,923.54
2017-03-01T01:56:43.655Z,923.53
2017-03-01T01:56:58.283Z,923.52
2017-03-01T01:57:12.937Z,923.54
2017-03-01T01:57:27.535Z,923.55
2017-03-01T01:57:42.093Z,923.54
2017-03-01T01:57:56.724Z,923.54
2017-03-01T01:58:11.338Z,923.52
2017-03-01T01:58:25.921Z,923.53
2017-03-01T01:58:40.589Z,923.51
2017-03-01T01:58:55.200Z,923.55
2017-03-01T01:59:09.770Z,923.52
2017-03-01T01:59:24.369Z,923.53
2017-03-01T01:59:39.029Z,923.55
2017-03-01T01:59:53.564Z,923.55
2017-03-01T02:00:08.182Z,923.53
2017-03-01T02:00:22.756Z,923.55
2017-03-01T02:00:50.140Z,923.51
2017-03-01T02:01:04.731Z,923.52
2017-03-01T02:01:50.241Z,923.49
2017-03-01T02:02:04.803Z,923.49
2017-03-01T02:03:44.202Z,923.49
2017-03-01T02:03:58.855Z,923.46
2017-03-01T02:04:13.438Z,923.47
2017-03-01T02:04:58.938Z,923.49
2017-03-01T02:05:13.557Z,923.46
2017-03-01T02:05:28.192Z,923.46
2017-03-01T02:05:42.792Z,923.43
2017-03-01T02:05:57.381Z,923.42
2017-03-01T02:06:11.923Z,923.43
2017-03-01T02:06:26.516Z,923.45
2017-03-01T02:06:41.113Z,923.43
2017-03-01T02:06:55.719Z,923.44
2017-03-01T02:07:10.376Z,923.39
2017-03-01T02:07:24.947Z,923.37
2017-03-01T02:07:39.593Z,923.39
2017-03-01T02:07:57.196Z,923.38
2017-03-01T02:08:12.366Z,923.33
2017-03-01T02:08:26.962Z,923.32
2017-03-01T02:08:41.539Z,923.38
2017-03-01T02:08:56.116Z,923.34
2017-03-01T02:09:10.705Z,923.31
2017-03-01T02:09:25.353Z,923.32
2017-03-01T02:09:39.933Z,923.34
2017-03-01T02:09:54.569Z,923.32
2017-03-01T02:10:09.125Z,923.29
2017-03-01T02:10:23.950Z,923.3
2017-03-01T02:10:38.533Z,923.29
2017-03-01T02:10:53.202Z,923.31
2017-03-01T02:11:09.223Z,923.28
2017-03-01T02:11:23.842Z,923.29
2017-03-01T02:11:38.450Z,923.3
2017-03-01T02:11:53.068Z,923.29
2017-03-01T02:12:07.688Z,923.3
2017-03-01T02:12:22.338Z,923.27
2017-03-01T02:12:36.953Z,923.27
2017-03-01T02:12:51.521Z,923.27
2017-03-01T02:13:06.133Z,923.28
2017-03-01T02:13:20.720Z,923.28
2017-03-01T02:13:35.427Z,923.3
2017-03-01T02:13:49.988Z,923.28
2017-03-01T02:14:04.635Z,923.26
2017-03-01T02:14:19.254Z,923.27
2017-03-01T02:14:33.888Z,923.28
2017-03-01T02:14:48.480Z,923.26
2017-03-01T02:15:03.120Z,923.24
2017-03-01T02:15:17.752Z,923.27
2017-03-01T02:15:32.421Z,923.24
2017-03-01T02:15:47.065Z,923.22
2017-03-01T02:16:01.723Z,923.21
2017-03-01T02:16:16.303Z,923.22
2017-03-01T02:16:30.873Z,923.21
2017-03-01T02:16:45.472Z,923.2
2017-03-01T02:17:00.088Z,923.22
2017-03-01T02:17:14.716Z,923.17
2017-03-01T02:17:29.319Z,923.18
2017-03-01T02:17:43.911Z,923.2
2017-03-01T02:17:58.473Z,923.19
2017-03-01T02:18:13.226Z,923.17
2017-03-01T02:18:27.830Z,923.17
2017-03-01T02:18:42.395Z,923.14
2017-03-01T02:18:57.016Z,923.16
2017-03-01T02:19:11.589Z,923.15
2017-03-01T02:19:26.205Z,923.17
2017-03-01T02:19:40.821Z,923.13
2017-03-01T02:19:55.448Z,923.15
2017-03-01T02:20:10.026Z,923.13
2017-03-01T02:20:24.646Z,923.16
2017-03-01T02:20:39.282Z,923.17
2017-03-01T02:20:53.868Z,923.13
2017-03-01T02:21:08.481Z,923.17
2017-03-01T02:21:23.122Z,923.14
2017-03-01T02:21:37.747Z,923.14
2017-03-01T02:21:52.410Z,923.14
2017-03-01T02:22:06.988Z,923.14
2017-03-01T02:22:21.607Z,923.16
2017-03-01T02:22:36.215Z,923.16
2017-03-01T02:22:50.833Z,923.15
2017-03-01T02:23:05.405Z,923.21
2017-03-01T02:23:20.001Z,923.21
2017-03-01T02:23:34.597Z,923.19
2017-03-01T02:23:49.615Z,923.2
2017-03-01T02:24:04.297Z,923.23
2017-03-01T02:24:18.898Z,923.18
2017-03-01T02:24:33.526Z,923.21
2017-03-01T02:24:48.148Z,923.22
2017-03-01T02:25:02.764Z,923.24
2017-03-01T02:25:17.350Z,923.2
2017-03-01T02:25:31.932Z,923.22
2017-03-01T02:25:46.506Z,923.22
2017-03-01T02:26:01.166Z,923.24
2017-03-01T02:26:15.807Z,923.21
2017-03-01T02:26:30.417Z,923.2
2017-03-01T02:26:45.022Z,923.24
2017-03-01T02:26:59.609Z,923.27
2017-03-01T02:27:14.295Z,923.18
2017-03-01T02:27:28.883Z,923.26
2017-03-01T02:27:43.508Z,923.26
2017-03-01T02:27:58.048Z,923.24
2017-03-01T02:28:12.684Z,923.27
2017-03-01T02:28:27.324Z,923.26
2017-03-01T02:28:41.954Z,923.3
2017-03-01T02:28:56.529Z,923.27
2017-03-01T02:29:11.111Z,923.31
2017-03-01T02:29:25.660Z,923.3
2017-03-01T02:29:40.291Z,923.31
2017-03-01T02:29:54.900Z,923.3
2017-03-01T02:30:09.468Z,923.28
2017-03-01T02:30:24.094Z,923.32
2017-03-01T02:30:38.664Z,923.33
2017-03-01T02:30:53.282Z,923.32
2017-03-01T02:31:07.941Z,923.33
2017-03-01T02:31:22.511Z,923.34
2017-03-01T02:31:37.054Z,923.3
2017-03-01T02:31:51.681Z,923.32
2017-03-01T02:32:06.335Z,923.35
2017-03-01T02:32:20.948Z,923.32
2017-03-01T02:32:35.541Z,923.33
2017-03-01T02:32:50.141Z,923.32
2017-03-01T02:33:04.687Z,923.31
2017-03-01T02:33:19.507Z,923.33
2017-03-01T02:33:34.084Z,923.36
2017-03-01T02:33:48.726Z,923.35
2017-03-01T02:34:03.331Z,923.34
2017-03-01T02:34:17.906Z,923.34
2017-03-01T02:34:32.483Z,923.35
2017-03-01T02:34:47.069Z,923.38
2017-03-01T02:35:01.633Z,923.35
2017-03-01T02:35:16.209Z,923.36
2017-03-01T02:35:30.796Z,923.37
2017-03-01T02:35:45.448Z,923.4
2017-03-01T02:36:00.019Z,923.39
2017-03-01T02:36:14.616Z,923.38
2017-03-01T02:36:29.166Z,923.39
2017-03-01T02:36:43.806Z,923.4
2017-03-01T02:36:58.448Z,923.38
2017-03-01T02:37:13.059Z,923.41
2017-03-01T02:37:27.696Z,923.41
2017-03-01T02:37:42.370Z,923.4
2017-03-01T02:37:57.028Z,923.38
2017-03-01T02:38:11.619Z,923.44
2017-03-01T02:38:26.209Z,923.42
2017-03-01T02:38:40.848Z,923.39
2017-03-01T02:38:55.474Z,923.41
2017-03-01T02:39:10.118Z,923.39
2017-03-01T02:39:24.712Z,923.4
2017-03-01T02:39:39.356Z,923.43
2017-03-01T02:39:53.961Z,923.42
2017-03-01T02:40:08.513Z,923.37
2017-03-01T02:40:23.086Z,923.39
2017-03-01T02:40:37.657Z,923.4
2017-03-01T02:40:52.246Z,923.39
2017-03-01T02:41:06.865Z,923.35
2017-03-01T02:41:21.530Z,923.36
2017-03-01T02:41:36.193Z,923.39
2017-03-01T02:41:50.765Z,923.39
2017-03-01T02:42:05.357Z,923.38
2017-03-01T02:42:19.966Z,923.37
2017-03-01T02:42:34.598Z,923.38
2017-03-01T02:42:49.160Z,923.32
2017-03-01T02:43:03.803Z,923.36
2017-03-01T02:43:18.417Z,923.37
2017-03-01T02:43:32.990Z,923.33
2017-03-01T02:43:47.572Z,923.35
2017-03-01T02:44:02.142Z,923.35
2017-03-01T02:44:16.743Z,923.34
2017-03-01T02:44:31.351Z,923.34
2017-03-01T02:44:45.931Z,923.36
2017-03-01T02:45:00.594Z,923.33
2017-03-01T02:45:15.224Z,923.36
2017-03-01T02:45:29.831Z,923.34
2017-03-01T02:45:44.432Z,923.34
2017-03-01T02:45:59.040Z,923.34
2017-03-01T02:46:13.620Z,923.34
2017-03-01T02:46:28.266Z,923.3
2017-03-01T02:46:42.824Z,923.31
2017-03-01T02:46:57.345Z,923.32
2017-03-01T02:47:11.883Z,923.32
2017-03-01T02:47:26.419Z,923.27
2017-03-01T02:47:41.024Z,923.3
2017-03-01T02:47:55.609Z,923.3
2017-03-01T02:48:10.218Z,923.29
2017-03-01T02:48:25.029Z,923.3
2017-03-01T02:48:39.661Z,923.28
2017-03-01T02:48:54.239Z,923.3
2017-03-01T02:49:08.842Z,923.28
2017-03-01T02:49:23.382Z,923.3
2017-03-01T02:49:37.994Z,923.31
2017-03-01T02:49:52.567Z,923.3
2017-03-01T02:50:07.141Z,923.3
2017-03-01T02:50:21.765Z,923.32
2017-03-01T02:50:36.405Z,923.29
2017-03-01T02:50:51.018Z,923.32
2017-03-01T02:51:05.643Z,923.28
2017-03-01T02:51:20.265Z,923.29
2017-03-01T02:51:34.912Z,923.31
2017-03-01T02:51:49.471Z,923.32
2017-03-01T02:52:04.088Z,923.32
2017-03-01T02:52:18.693Z,923.3
2017-03-01T02:52:33.320Z,923.33
2017-03-01T02:52:47.942Z,923.3
2017-03-01T02:53:02.607Z,923.3
2017-03-01T02:53:17.176Z,923.29
2017-03-01T02:53:31.762Z,923.28
2017-03-01T02:53:46.367Z,923.32
2017-03-01T02:54:01.038Z,923.33
2017-03-01T02:54:15.705Z,923.32
2017-03-01T02:54:30.291Z,923.31
2017-03-01T02:54:44.904Z,923.28
2017-03-01T02:54:59.548Z,923.29
2017-03-01T02:55:14.112Z,923.31
2017-03-01T02:55:28.725Z,923.34
2017-03-01T02:55:43.310Z,923.33
2017-03-01T02:55:57.940Z,923.33
2017-03-01T02:56:12.535Z,923.33
2017-03-01T02:56:27.094Z,923.31
2017-03-01T02:56:41.746Z,923.35
2017-03-01T02:56:56.320Z,923.31
2017-03-01T02:57:10.987Z,923.32
2017-03-01T02:57:25.618Z,923.3
2017-03-01T02:57:40.187Z,923.33
2017-03-01T02:57:54.806Z,923.32
2017-03-01T02:58:09.443Z,923.33
2017-03-01T02:58:24.023Z,923.36
2017-03-01T02:58:38.595Z,923.33
2017-03-01T02:58:53.205Z,923.34
2017-03-01T02:59:07.755Z,923.33
2017-03-01T02:59:22.312Z,923.35
2017-03-01T02:59:36.929Z,923.34
2017-03-01T02:59:51.536Z,923.34
2017-03-01T03:00:06.147Z,923.35
2017-03-01T03:00:20.779Z,923.37
2017-03-01T03:00:35.398Z,923.36
2017-03-01T03:00:50.190Z,923.34
2017-03-01T03:01:04.841Z,923.39
2017-03-01T03:01:19.472Z,923.38
2017-03-01T03:01:34.084Z,923.38
2017-03-01T03:01:48.697Z,923.38
2017-03-01T03:02:03.549Z,923.38
2017-03-01T03:02:18.163Z,923.38
2017-03-01T03:02:32.775Z,923.37
2017-03-01T03:02:47.400Z,923.37
2017-03-01T03:03:02.013Z,923.41
2017-03-01T03:03:16.663Z,923.39
2017-03-01T03:03:31.281Z,923.4
2017-03-01T03:03:46.093Z,923.4
2017-03-01T03:04:00.707Z,923.36
2017-03-01T03:04:15.364Z,923.4
2017-03-01T03:04:29.896Z,923.35
2017-03-01T03:04:44.490Z,923.39
2017-03-01T03:04:59.109Z,923.38
2017-03-01T03:05:13.734Z,923.39
2017-03-01T03:05:28.378Z,923.37
2017-03-01T03:05:43.027Z,923.38
2017-03-01T03:05:57.629Z,923.38
2017-03-01T03:06:12.212Z,923.4
2017-03-01T03:06:26.848Z,923.38
2017-03-01T03:06:41.449Z,923.4
2017-03-01T03:06:56.075Z,923.41
2017-03-01T03:07:10.655Z,923.4
2017-03-01T03:07:25.247Z,923.41
2017-03-01T03:07:39.813Z,923.43
2017-03-01T03:07:54.465Z,923.43
2017-03-01T03:08:09.024Z,923.46
2017-03-01T03:08:23.598Z,923.43
2017-03-01T03:08:38.148Z,923.4
2017-03-01T03:08:52.774Z,923.44
2017-03-01T03:09:07.354Z,923.43
2017-03-01T03:09:21.981Z,923.45
2017-03-01T03:09:36.560Z,923.45